createdAt,value
2023-03-13T00:00:04.058Z,6.50
2023-03-13T00:00:14.185Z,6.48
2023-03-13T00:00:24.195Z,6.50
2023-03-13T00:00:34.333Z,6.50
2023-03-13T00:00:44.385Z,6.50
2023-03-13T00:00:54.535Z,6.51
2023-03-13T00:01:04.632Z,6.51
2023-03-13T00:01:14.721Z,6.50
2023-03-13T00:01:24.817Z,6.51
2023-03-13T00:01:34.933Z,6.51
2023-03-13T00:01:45.044Z,6.51
2023-03-13T00:01:55.156Z,6.51
2023-03-13T00:02:05.342Z,6.51
2023-03-13T00:02:15.338Z,6.51
2023-03-13T00:02:25.331Z,6.51
2023-03-13T00:02:35.391Z,6.51
2023-03-13T00:02:45.496Z,6.51
2023-03-13T00:02:55.600Z,6.50
2023-03-13T00:03:05.716Z,6.51
2023-03-13T00:03:15.781Z,6.50
2023-03-13T00:03:25.901Z,6.51
2023-03-13T00:03:35.968Z,6.53
2023-03-13T00:03:46.056Z,6.53
2023-03-13T00:03:56.176Z,6.51
2023-03-13T00:04:06.263Z,6.53
2023-03-13T00:04:16.332Z,6.53
2023-03-13T00:04:26.393Z,6.53
2023-03-13T00:04:36.556Z,6.53
2023-03-13T00:04:46.673Z,6.53
2023-03-13T00:04:56.848Z,6.54
2023-03-13T00:05:07.003Z,6.54
2023-03-13T00:05:17.123Z,6.53
2023-03-13T00:05:27.204Z,6.53
2023-03-13T00:05:37.276Z,6.54
2023-03-13T00:05:47.366Z,6.54
2023-03-13T00:05:57.451Z,6.54
2023-03-13T00:06:07.582Z,6.54
2023-03-13T00:06:17.676Z,6.54
2023-03-13T00:06:27.669Z,6.54
2023-03-13T00:06:37.761Z,6.53
2023-03-13T00:06:47.838Z,6.54
2023-03-13T00:06:58.024Z,6.54
2023-03-13T00:07:08.123Z,6.55
2023-03-13T00:07:18.208Z,6.54
2023-03-13T00:07:28.298Z,6.55
2023-03-13T00:07:38.451Z,6.54
2023-03-13T00:07:48.542Z,6.55
2023-03-13T00:07:58.628Z,6.55
2023-03-13T00:08:08.723Z,6.55
2023-03-13T00:08:18.790Z,6.55
2023-03-13T00:08:28.970Z,6.55
2023-03-13T00:08:39.059Z,6.55
2023-03-13T00:08:49.220Z,6.57
2023-03-13T00:08:59.333Z,6.55
2023-03-13T00:09:09.402Z,6.55
2023-03-13T00:09:19.494Z,6.57
2023-03-13T00:09:29.587Z,6.57
2023-03-13T00:09:39.665Z,6.55
2023-03-13T00:09:49.747Z,6.55
2023-03-13T00:09:59.822Z,6.57
2023-03-13T00:10:09.901Z,6.57
2023-03-13T00:10:19.984Z,6.57
2023-03-13T00:10:30.040Z,6.57
2023-03-13T00:10:40.150Z,6.57
2023-03-13T00:10:50.222Z,6.55
2023-03-13T00:11:00.298Z,6.57
2023-03-13T00:11:10.400Z,6.55
2023-03-13T00:11:20.472Z,6.57
2023-03-13T00:11:30.585Z,6.58
2023-03-13T00:11:40.664Z,6.57
2023-03-13T00:11:50.780Z,6.57
2023-03-13T00:12:00.857Z,6.57
2023-03-13T00:12:10.958Z,6.58
2023-03-13T00:12:21.029Z,6.58
2023-03-13T00:12:31.130Z,6.58
2023-03-13T00:12:41.189Z,6.55
2023-03-13T00:12:51.300Z,6.60
2023-03-13T00:13:01.374Z,6.57
2023-03-13T00:13:11.474Z,6.58
2023-03-13T00:13:21.543Z,6.58
2023-03-13T00:13:31.625Z,6.60
2023-03-13T00:13:41.697Z,6.58
2023-03-13T00:13:51.778Z,6.58
2023-03-13T00:14:01.888Z,6.60
2023-03-13T00:14:11.978Z,6.60
2023-03-13T00:14:22.068Z,6.58
2023-03-13T00:14:32.144Z,6.60
2023-03-13T00:14:42.257Z,6.58
2023-03-13T00:14:52.329Z,6.60
2023-03-13T00:15:02.430Z,6.58
2023-03-13T00:15:12.507Z,6.58
2023-03-13T00:15:22.603Z,6.60
2023-03-13T00:15:32.688Z,6.60
2023-03-13T00:15:42.758Z,6.61
2023-03-13T00:15:52.835Z,6.61
2023-03-13T00:16:02.921Z,6.61
2023-03-13T00:16:13.017Z,6.61
2023-03-13T00:16:23.192Z,6.60
2023-03-13T00:16:33.169Z,6.61
2023-03-13T00:16:43.317Z,6.61
2023-03-13T00:16:53.341Z,6.63
2023-03-13T00:17:03.354Z,6.63
2023-03-13T00:17:13.440Z,6.61
2023-03-13T00:17:23.576Z,6.61
2023-03-13T00:17:33.675Z,6.64
2023-03-13T00:17:43.826Z,6.61
2023-03-13T00:17:53.957Z,6.63
2023-03-13T00:18:04.054Z,6.64
2023-03-13T00:18:14.126Z,6.61
2023-03-13T00:18:24.214Z,6.63
2023-03-13T00:18:34.325Z,6.61
2023-03-13T00:18:44.455Z,6.64
2023-03-13T00:18:54.563Z,6.63
2023-03-13T00:19:04.645Z,6.64
2023-03-13T00:19:14.778Z,6.63
2023-03-13T00:19:24.845Z,6.65
2023-03-13T00:19:34.959Z,6.64
2023-03-13T00:19:45.036Z,6.64
2023-03-13T00:19:55.128Z,6.64
2023-03-13T00:20:05.249Z,6.64
2023-03-13T00:20:15.347Z,6.64
2023-03-13T00:20:25.415Z,6.64
2023-03-13T00:20:35.513Z,6.65
2023-03-13T00:20:45.576Z,6.65
2023-03-13T00:20:55.682Z,6.65
2023-03-13T00:21:05.792Z,6.68
2023-03-13T00:21:15.897Z,6.65
2023-03-13T00:21:25.988Z,6.65
2023-03-13T00:21:36.072Z,6.65
2023-03-13T00:21:46.155Z,6.68
2023-03-13T00:21:56.252Z,6.65
2023-03-13T00:22:06.346Z,6.68
2023-03-13T00:22:16.446Z,6.65
2023-03-13T00:22:26.555Z,6.68
2023-03-13T00:22:36.628Z,6.65
2023-03-13T00:22:46.818Z,6.68
2023-03-13T00:22:56.736Z,6.69
2023-03-13T00:23:06.864Z,6.68
2023-03-13T00:23:16.995Z,6.68
2023-03-13T00:23:27.120Z,6.68
2023-03-13T00:23:37.200Z,6.68
2023-03-13T00:23:47.317Z,6.68
2023-03-13T00:23:57.377Z,6.69
2023-03-13T00:24:07.524Z,6.68
2023-03-13T00:24:17.638Z,6.68
2023-03-13T00:24:27.655Z,6.69
2023-03-13T00:24:37.747Z,6.68
2023-03-13T00:24:47.826Z,6.69
2023-03-13T00:24:57.925Z,6.69
2023-03-13T00:25:08.008Z,6.72
2023-03-13T00:25:18.141Z,6.69
2023-03-13T00:25:28.247Z,6.68
2023-03-13T00:25:38.413Z,6.69
2023-03-13T00:25:48.342Z,6.69
2023-03-13T00:25:58.434Z,6.69
2023-03-13T00:26:08.500Z,6.69
2023-03-13T00:26:18.601Z,6.71
2023-03-13T00:26:28.644Z,6.71
2023-03-13T00:26:38.730Z,6.69
2023-03-13T00:26:48.837Z,6.71
2023-03-13T00:26:58.944Z,6.71
2023-03-13T00:27:09.057Z,6.72
2023-03-13T00:27:19.133Z,6.69
2023-03-13T00:27:29.195Z,6.71
2023-03-13T00:27:39.234Z,6.72
2023-03-13T00:27:49.387Z,6.69
2023-03-13T00:27:59.453Z,6.71
2023-03-13T00:28:09.554Z,6.71
2023-03-13T00:28:19.626Z,6.71
2023-03-13T00:28:31.842Z,6.71
2023-03-13T00:28:39.951Z,6.71
2023-03-13T00:28:50.035Z,6.72
2023-03-13T00:29:00.129Z,6.72
2023-03-13T00:29:10.243Z,6.72
2023-03-13T00:29:20.334Z,6.71
2023-03-13T00:29:30.415Z,6.72
2023-03-13T00:29:40.505Z,6.72
2023-03-13T00:29:50.599Z,6.73
2023-03-13T00:30:00.692Z,6.72
2023-03-13T00:30:10.773Z,6.73
2023-03-13T00:30:20.952Z,6.73
2023-03-13T00:30:31.075Z,6.72
2023-03-13T00:30:41.012Z,6.72
2023-03-13T00:30:51.118Z,6.73
2023-03-13T00:31:01.284Z,6.71
2023-03-13T00:31:11.350Z,6.73
2023-03-13T00:31:21.672Z,6.73
2023-03-13T00:31:31.628Z,6.73
2023-03-13T00:31:41.593Z,6.72
2023-03-13T00:31:51.758Z,6.73
2023-03-13T00:32:01.945Z,6.73
2023-03-13T00:32:11.977Z,6.73
2023-03-13T00:32:22.106Z,6.75
2023-03-13T00:32:32.120Z,6.75
2023-03-13T00:32:42.282Z,6.73
2023-03-13T00:32:52.331Z,6.75
2023-03-13T00:33:02.355Z,6.73
2023-03-13T00:33:12.338Z,6.75
2023-03-13T00:33:22.433Z,6.73
2023-03-13T00:33:32.514Z,6.73
2023-03-13T00:33:42.614Z,6.75
2023-03-13T00:33:52.692Z,6.75
2023-03-13T00:34:02.801Z,6.75
2023-03-13T00:34:12.934Z,6.75
2023-03-13T00:34:23.052Z,6.75
2023-03-13T00:34:33.183Z,6.75
2023-03-13T00:34:43.293Z,6.76
2023-03-13T00:34:53.403Z,6.75
2023-03-13T00:35:03.497Z,6.75
2023-03-13T00:35:13.600Z,6.76
2023-03-13T00:35:23.728Z,6.75
2023-03-13T00:35:33.818Z,6.76
2023-03-13T00:35:43.958Z,6.76
2023-03-13T00:35:54.043Z,6.75
2023-03-13T00:36:04.142Z,6.76
2023-03-13T00:36:14.232Z,6.78
2023-03-13T00:36:24.312Z,6.76
2023-03-13T00:36:34.401Z,6.76
2023-03-13T00:36:44.538Z,6.78
2023-03-13T00:36:54.601Z,6.76
2023-03-13T00:37:04.737Z,6.78
2023-03-13T00:37:14.825Z,6.76
2023-03-13T00:37:24.912Z,6.79
2023-03-13T00:37:34.990Z,6.78
2023-03-13T00:37:45.114Z,6.79
2023-03-13T00:37:55.201Z,6.78
2023-03-13T00:38:05.355Z,6.78
2023-03-13T00:38:15.421Z,6.79
2023-03-13T00:38:25.531Z,6.79
2023-03-13T00:38:35.652Z,6.78
2023-03-13T00:38:45.764Z,6.79
2023-03-13T00:38:55.875Z,6.79
2023-03-13T00:39:05.983Z,6.81
2023-03-13T00:39:15.989Z,6.79
2023-03-13T00:39:26.064Z,6.79
2023-03-13T00:39:36.169Z,6.81
2023-03-13T00:39:46.331Z,6.79
2023-03-13T00:39:56.272Z,6.79
2023-03-13T00:40:06.361Z,6.81
2023-03-13T00:40:16.464Z,6.81
2023-03-13T00:40:26.562Z,6.79
2023-03-13T00:40:36.656Z,6.79
2023-03-13T00:40:46.738Z,6.82
2023-03-13T00:40:56.821Z,6.79
2023-03-13T00:41:06.901Z,6.81
2023-03-13T00:41:17.042Z,6.81
2023-03-13T00:41:27.146Z,6.81
2023-03-13T00:41:37.274Z,6.81
2023-03-13T00:41:47.361Z,6.81
2023-03-13T00:41:57.450Z,6.81
2023-03-13T00:42:07.541Z,6.81
2023-03-13T00:42:17.650Z,6.82
2023-03-13T00:42:27.804Z,6.81
2023-03-13T00:42:37.880Z,6.81
2023-03-13T00:42:48.000Z,6.82
2023-03-13T00:42:58.070Z,6.82
2023-03-13T00:43:08.209Z,6.82
2023-03-13T00:43:18.309Z,6.82
2023-03-13T00:43:28.431Z,6.82
2023-03-13T00:43:38.593Z,6.82
2023-03-13T00:43:48.695Z,6.82
2023-03-13T00:43:58.784Z,6.83
2023-03-13T00:44:08.858Z,6.83
2023-03-13T00:44:18.961Z,6.82
2023-03-13T00:44:29.038Z,6.82
2023-03-13T00:44:39.149Z,6.83
2023-03-13T00:44:49.219Z,6.83
2023-03-13T00:44:59.305Z,6.82
2023-03-13T00:45:09.379Z,6.86
2023-03-13T00:45:19.481Z,6.86
2023-03-13T00:45:29.591Z,6.86
2023-03-13T00:45:39.716Z,6.86
2023-03-13T00:45:49.849Z,6.86
2023-03-13T00:45:59.861Z,6.83
2023-03-13T00:46:09.895Z,6.83
2023-03-13T00:46:19.898Z,6.86
2023-03-13T00:46:29.911Z,6.86
2023-03-13T00:46:40.031Z,6.86
2023-03-13T00:46:50.140Z,6.86
2023-03-13T00:47:00.260Z,6.86
2023-03-13T00:47:10.370Z,6.87
2023-03-13T00:47:20.463Z,6.87
2023-03-13T00:47:30.556Z,6.86
2023-03-13T00:47:40.632Z,6.87
2023-03-13T00:47:50.719Z,6.87
2023-03-13T00:48:00.820Z,6.86
2023-03-13T00:48:10.920Z,6.87
2023-03-13T00:48:21.001Z,6.87
2023-03-13T00:48:31.120Z,6.87
2023-03-13T00:48:41.220Z,6.87
2023-03-13T00:48:51.300Z,6.87
2023-03-13T00:49:01.400Z,6.87
2023-03-13T00:49:11.493Z,6.89
2023-03-13T00:49:21.599Z,6.89
2023-03-13T00:49:31.670Z,6.87
2023-03-13T00:49:41.828Z,6.89
2023-03-13T00:49:51.918Z,6.89
2023-03-13T00:50:02.027Z,6.89
2023-03-13T00:50:12.114Z,6.89
2023-03-13T00:50:22.195Z,6.89
2023-03-13T00:50:32.310Z,6.90
2023-03-13T00:50:42.389Z,6.89
2023-03-13T00:50:52.511Z,6.90
2023-03-13T00:51:02.584Z,6.89
2023-03-13T00:51:12.739Z,6.89
2023-03-13T00:51:22.820Z,6.89
2023-03-13T00:51:32.897Z,6.90
2023-03-13T00:51:42.971Z,6.89
2023-03-13T00:51:53.059Z,6.90
2023-03-13T00:52:03.149Z,6.90
2023-03-13T00:52:13.220Z,6.90
2023-03-13T00:52:23.345Z,6.89
2023-03-13T00:52:33.425Z,6.90
2023-03-13T00:52:43.532Z,6.90
2023-03-13T00:52:53.618Z,6.90
2023-03-13T00:53:03.718Z,6.90
2023-03-13T00:53:13.854Z,6.90
2023-03-13T00:53:23.927Z,6.90
2023-03-13T00:53:34.019Z,6.90
2023-03-13T00:53:44.098Z,6.90
2023-03-13T00:53:54.202Z,6.90
2023-03-13T00:54:04.269Z,6.90
2023-03-13T00:54:14.382Z,6.90
2023-03-13T00:54:24.454Z,6.90
2023-03-13T00:54:34.558Z,6.90
2023-03-13T00:54:44.630Z,6.89
2023-03-13T00:54:54.720Z,6.89
2023-03-13T00:55:04.807Z,6.91
2023-03-13T00:55:14.916Z,6.90
2023-03-13T00:55:24.987Z,6.91
2023-03-13T00:55:35.068Z,6.90
2023-03-13T00:55:45.238Z,6.91
2023-03-13T00:55:55.337Z,6.90
2023-03-13T00:56:05.449Z,6.90
2023-03-13T00:56:15.552Z,6.91
2023-03-13T00:56:25.654Z,6.91
2023-03-13T00:56:35.736Z,6.91
2023-03-13T00:56:45.847Z,6.91
2023-03-13T00:56:55.983Z,6.90
2023-03-13T00:57:06.100Z,6.90
2023-03-13T00:57:16.196Z,6.90
2023-03-13T00:57:26.318Z,6.91
2023-03-13T00:57:36.470Z,6.91
2023-03-13T00:57:46.547Z,6.90
2023-03-13T00:57:56.635Z,6.91
2023-03-13T00:58:06.736Z,6.90
2023-03-13T00:58:16.842Z,6.90
2023-03-13T00:58:26.962Z,6.90
2023-03-13T00:58:37.074Z,6.91
2023-03-13T00:58:47.168Z,6.90
2023-03-13T00:58:57.265Z,6.91
2023-03-13T00:59:07.338Z,6.91
2023-03-13T00:59:17.445Z,6.91
2023-03-13T00:59:27.533Z,6.90
2023-03-13T00:59:37.641Z,6.91
2023-03-13T00:59:47.715Z,6.90
2023-03-13T00:59:57.815Z,6.91
2023-03-13T01:00:07.937Z,6.91
2023-03-13T01:00:17.997Z,6.91
2023-03-13T01:00:28.078Z,6.91
2023-03-13T01:00:38.144Z,6.91
2023-03-13T01:00:48.260Z,6.91
2023-03-13T01:00:58.330Z,6.93
2023-03-13T01:01:08.422Z,6.90
2023-03-13T01:01:18.538Z,6.93
2023-03-13T01:01:28.644Z,6.93
2023-03-13T01:01:38.697Z,6.91
2023-03-13T01:01:48.792Z,6.91
2023-03-13T01:01:58.866Z,6.91
2023-03-13T01:02:09.105Z,6.93
2023-03-13T01:02:19.135Z,6.91
2023-03-13T01:02:29.222Z,6.93
2023-03-13T01:02:39.272Z,6.91
2023-03-13T01:02:49.318Z,6.91
2023-03-13T01:02:59.304Z,6.93
2023-03-13T01:03:09.465Z,6.93
2023-03-13T01:03:19.567Z,6.93
2023-03-13T01:03:29.644Z,6.91
2023-03-13T01:03:39.815Z,6.93
2023-03-13T01:03:49.770Z,6.91
2023-03-13T01:03:59.909Z,6.93
2023-03-13T01:04:09.947Z,6.91
2023-03-13T01:04:20.047Z,6.93
2023-03-13T01:04:30.166Z,6.93
2023-03-13T01:04:40.250Z,6.91
2023-03-13T01:04:50.318Z,6.91
2023-03-13T01:05:00.408Z,6.91
2023-03-13T01:05:10.486Z,6.93
2023-03-13T01:05:20.552Z,6.93
2023-03-13T01:05:30.637Z,6.91
2023-03-13T01:05:40.710Z,6.91
2023-03-13T01:05:50.848Z,6.93
2023-03-13T01:06:00.949Z,6.93
2023-03-13T01:06:11.039Z,6.91
2023-03-13T01:06:21.150Z,6.94
2023-03-13T01:06:31.219Z,6.93
2023-03-13T01:06:41.311Z,6.93
2023-03-13T01:06:51.392Z,6.93
2023-03-13T01:07:01.470Z,6.93
2023-03-13T01:07:11.569Z,6.93
2023-03-13T01:07:21.661Z,6.94
2023-03-13T01:07:31.749Z,6.94
2023-03-13T01:07:41.953Z,6.94
2023-03-13T01:07:51.902Z,6.96
2023-03-13T01:08:02.001Z,6.93
2023-03-13T01:08:12.079Z,6.96
2023-03-13T01:08:22.182Z,6.93
2023-03-13T01:08:32.277Z,6.94
2023-03-13T01:08:42.360Z,6.94
2023-03-13T01:08:52.479Z,6.94
2023-03-13T01:09:02.590Z,6.94
2023-03-13T01:09:12.709Z,6.96
2023-03-13T01:09:22.836Z,6.94
2023-03-13T01:09:32.912Z,6.96
2023-03-13T01:09:43.024Z,6.96
2023-03-13T01:09:53.091Z,6.96
2023-03-13T01:10:03.154Z,6.96
2023-03-13T01:10:13.230Z,6.94
2023-03-13T01:10:23.271Z,6.97
2023-03-13T01:10:33.352Z,6.96
2023-03-13T01:10:43.421Z,6.96
2023-03-13T01:10:53.506Z,6.97
2023-03-13T01:11:03.603Z,6.96
2023-03-13T01:11:13.726Z,6.96
2023-03-13T01:11:23.795Z,6.96
2023-03-13T01:11:33.871Z,6.96
2023-03-13T01:11:43.962Z,6.96
2023-03-13T01:11:54.029Z,6.97
2023-03-13T01:12:04.183Z,6.96
2023-03-13T01:12:14.242Z,6.96
2023-03-13T01:12:24.328Z,6.97
2023-03-13T01:12:34.380Z,6.97
2023-03-13T01:12:44.454Z,6.97
2023-03-13T01:12:54.531Z,6.97
2023-03-13T01:13:04.629Z,6.97
2023-03-13T01:13:14.700Z,6.96
2023-03-13T01:13:24.781Z,6.97
2023-03-13T01:13:34.842Z,6.97
2023-03-13T01:13:44.908Z,6.99
2023-03-13T01:13:54.987Z,6.97
2023-03-13T01:14:05.054Z,6.97
2023-03-13T01:14:15.133Z,6.99
2023-03-13T01:14:25.202Z,6.97
2023-03-13T01:14:35.282Z,6.97
2023-03-13T01:14:45.371Z,6.99
2023-03-13T01:14:55.434Z,6.97
2023-03-13T01:15:05.516Z,6.96
2023-03-13T01:15:15.571Z,6.99
2023-03-13T01:15:25.669Z,6.99
2023-03-13T01:15:35.776Z,6.97
2023-03-13T01:15:45.884Z,6.99
2023-03-13T01:15:56.081Z,6.97
2023-03-13T01:16:06.081Z,6.96
2023-03-13T01:16:16.179Z,6.97
2023-03-13T01:16:26.309Z,6.99
2023-03-13T01:16:36.362Z,6.97
2023-03-13T01:16:46.503Z,6.99
2023-03-13T01:16:56.580Z,6.97
2023-03-13T01:17:06.641Z,6.99
2023-03-13T01:17:16.745Z,6.99
2023-03-13T01:17:26.920Z,6.99
2023-03-13T01:17:36.846Z,6.99
2023-03-13T01:17:46.997Z,6.99
2023-03-13T01:17:56.965Z,6.99
2023-03-13T01:18:07.109Z,6.97
2023-03-13T01:18:17.195Z,6.99
2023-03-13T01:18:27.293Z,6.99
2023-03-13T01:18:37.372Z,6.99
2023-03-13T01:18:47.474Z,6.99
2023-03-13T01:18:57.702Z,6.99
2023-03-13T01:19:07.642Z,6.99
2023-03-13T01:19:18.062Z,7.00
2023-03-13T01:19:27.983Z,6.99
2023-03-13T01:19:38.082Z,6.97
2023-03-13T01:19:48.152Z,6.99
2023-03-13T01:19:58.252Z,6.99
2023-03-13T01:20:08.353Z,6.99
2023-03-13T01:20:18.457Z,6.99
2023-03-13T01:20:28.594Z,7.00
2023-03-13T01:20:38.736Z,7.00
2023-03-13T01:20:48.811Z,6.99
2023-03-13T01:20:58.932Z,7.00
2023-03-13T01:21:08.994Z,7.00
2023-03-13T01:21:19.159Z,6.99
2023-03-13T01:21:29.231Z,7.00
2023-03-13T01:21:39.323Z,6.97
2023-03-13T01:21:49.396Z,6.99
2023-03-13T01:21:59.481Z,7.00
2023-03-13T01:22:09.563Z,6.99
2023-03-13T01:22:19.657Z,7.00
2023-03-13T01:22:29.753Z,7.01
2023-03-13T01:22:39.854Z,7.00
2023-03-13T01:22:49.950Z,7.01
2023-03-13T01:23:00.044Z,7.00
2023-03-13T01:23:10.153Z,7.01
2023-03-13T01:23:20.224Z,6.99
2023-03-13T01:23:30.329Z,7.00
2023-03-13T01:23:40.411Z,6.99
2023-03-13T01:23:50.527Z,7.00
2023-03-13T01:24:00.592Z,7.01
2023-03-13T01:24:10.691Z,7.01
2023-03-13T01:24:20.779Z,7.01
2023-03-13T01:24:30.888Z,7.01
2023-03-13T01:24:40.992Z,7.00
2023-03-13T01:24:51.142Z,7.01
2023-03-13T01:25:01.223Z,7.01
2023-03-13T01:25:11.313Z,7.01
2023-03-13T01:25:21.394Z,7.01
2023-03-13T01:25:31.491Z,7.01
2023-03-13T01:25:41.567Z,7.01
2023-03-13T01:25:51.634Z,7.04
2023-03-13T01:26:01.743Z,7.01
2023-03-13T01:26:11.832Z,7.01
2023-03-13T01:26:21.982Z,7.01
2023-03-13T01:26:32.059Z,7.04
2023-03-13T01:26:42.145Z,7.01
2023-03-13T01:26:52.242Z,7.04
2023-03-13T01:27:02.334Z,7.04
2023-03-13T01:27:12.434Z,7.01
2023-03-13T01:27:22.616Z,7.04
2023-03-13T01:27:32.693Z,7.05
2023-03-13T01:27:42.792Z,7.05
2023-03-13T01:27:52.881Z,7.04
2023-03-13T01:28:02.973Z,7.05
2023-03-13T01:28:13.051Z,7.05
2023-03-13T01:28:23.142Z,7.04
2023-03-13T01:28:33.250Z,7.05
2023-03-13T01:28:43.341Z,7.05
2023-03-13T01:28:53.423Z,7.05
2023-03-13T01:29:03.513Z,7.05
2023-03-13T01:29:13.603Z,7.05
2023-03-13T01:29:23.703Z,7.05
2023-03-13T01:29:33.812Z,7.05
2023-03-13T01:29:43.881Z,7.07
2023-03-13T01:29:53.992Z,7.05
2023-03-13T01:30:04.089Z,7.07
2023-03-13T01:30:14.184Z,7.07
2023-03-13T01:30:24.357Z,7.07
2023-03-13T01:30:34.433Z,7.07
2023-03-13T01:30:44.524Z,7.05
2023-03-13T01:30:54.632Z,7.07
2023-03-13T01:31:04.801Z,7.07
2023-03-13T01:31:14.794Z,7.07
2023-03-13T01:31:24.885Z,7.08
2023-03-13T01:31:34.893Z,7.07
2023-03-13T01:31:44.872Z,7.05
2023-03-13T01:31:54.964Z,7.07
2023-03-13T01:32:05.063Z,7.07
2023-03-13T01:32:15.136Z,7.07
2023-03-13T01:32:25.294Z,7.07
2023-03-13T01:32:35.251Z,7.05
2023-03-13T01:32:45.470Z,7.07
2023-03-13T01:32:55.469Z,7.07
2023-03-13T01:33:05.443Z,7.07
2023-03-13T01:33:15.521Z,7.07
2023-03-13T01:33:25.610Z,7.07
2023-03-13T01:33:35.692Z,7.05
2023-03-13T01:33:45.772Z,7.05
2023-03-13T01:33:55.868Z,7.08
2023-03-13T01:34:05.967Z,7.07
2023-03-13T01:34:16.038Z,7.07
2023-03-13T01:34:26.142Z,7.07
2023-03-13T01:34:36.286Z,7.08
2023-03-13T01:34:46.394Z,7.07
2023-03-13T01:34:56.502Z,7.07
2023-03-13T01:35:06.601Z,7.07
2023-03-13T01:35:16.754Z,7.08
2023-03-13T01:35:26.915Z,7.05
2023-03-13T01:35:37.022Z,7.07
2023-03-13T01:35:47.233Z,7.07
2023-03-13T01:35:57.301Z,7.07
2023-03-13T01:36:07.381Z,7.05
2023-03-13T01:36:17.485Z,7.07
2023-03-13T01:36:27.569Z,7.07
2023-03-13T01:36:37.709Z,7.07
2023-03-13T01:36:47.792Z,7.08
2023-03-13T01:36:57.882Z,7.08
2023-03-13T01:37:07.978Z,7.07
2023-03-13T01:37:18.069Z,7.08
2023-03-13T01:37:28.164Z,7.07
2023-03-13T01:37:38.286Z,7.07
2023-03-13T01:37:48.384Z,7.08
2023-03-13T01:37:58.486Z,7.07
2023-03-13T01:38:08.608Z,7.08
2023-03-13T01:38:18.693Z,7.08
2023-03-13T01:38:28.804Z,7.07
2023-03-13T01:38:38.893Z,7.08
2023-03-13T01:38:48.980Z,7.08
2023-03-13T01:38:59.072Z,7.08
2023-03-13T01:39:09.173Z,7.08
2023-03-13T01:39:19.248Z,7.08
2023-03-13T01:39:29.340Z,7.08
2023-03-13T01:39:39.430Z,7.08
2023-03-13T01:39:49.531Z,7.09
2023-03-13T01:39:59.634Z,7.08
2023-03-13T01:40:09.710Z,7.08
2023-03-13T01:40:19.864Z,7.08
2023-03-13T01:40:29.975Z,7.09
2023-03-13T01:40:39.981Z,7.08
2023-03-13T01:40:50.069Z,7.08
2023-03-13T01:41:00.158Z,7.08
2023-03-13T01:41:10.233Z,7.09
2023-03-13T01:41:20.330Z,7.09
2023-03-13T01:41:30.414Z,7.09
2023-03-13T01:41:40.502Z,7.09
2023-03-13T01:41:50.591Z,7.09
2023-03-13T01:42:00.751Z,7.08
2023-03-13T01:42:10.833Z,7.08
2023-03-13T01:42:20.906Z,7.08
2023-03-13T01:42:31.017Z,7.08
2023-03-13T01:42:41.091Z,7.09
2023-03-13T01:42:51.219Z,7.09
2023-03-13T01:43:01.300Z,7.08
2023-03-13T01:43:14.515Z,7.08
2023-03-13T01:43:27.047Z,7.09
2023-03-13T01:43:32.544Z,7.07
2023-03-13T01:43:42.620Z,7.08
2023-03-13T01:43:52.716Z,7.08
2023-03-13T01:44:02.796Z,7.08
2023-03-13T01:44:12.890Z,7.09
2023-03-13T01:44:22.970Z,7.08
2023-03-13T01:44:33.056Z,7.08
2023-03-13T01:44:43.137Z,7.08
2023-03-13T01:44:53.246Z,7.08
2023-03-13T01:45:03.357Z,7.09
2023-03-13T01:45:13.461Z,7.08
2023-03-13T01:45:23.552Z,7.08
2023-03-13T01:45:33.682Z,7.08
2023-03-13T01:45:43.768Z,7.09
2023-03-13T01:45:53.876Z,7.09
2023-03-13T01:46:04.036Z,7.09
2023-03-13T01:46:14.206Z,7.09
2023-03-13T01:46:24.221Z,7.09
2023-03-13T01:46:34.459Z,7.09
2023-03-13T01:46:44.512Z,7.09
2023-03-13T01:46:54.457Z,7.09
2023-03-13T01:47:04.554Z,7.11
2023-03-13T01:47:14.632Z,7.09
2023-03-13T01:47:24.714Z,7.09
2023-03-13T01:47:34.830Z,7.09
2023-03-13T01:47:47.090Z,7.09
2023-03-13T01:47:55.030Z,7.08
2023-03-13T01:48:05.118Z,7.09
2023-03-13T01:48:15.215Z,7.09
2023-03-13T01:48:25.291Z,7.09
2023-03-13T01:48:35.414Z,7.08
2023-03-13T01:48:45.477Z,7.09
2023-03-13T01:48:55.569Z,7.09
2023-03-13T01:49:05.650Z,7.09
2023-03-13T01:49:15.755Z,7.11
2023-03-13T01:49:25.808Z,7.11
2023-03-13T01:49:35.911Z,7.11
2023-03-13T01:49:45.978Z,7.11
2023-03-13T01:49:56.077Z,7.09
2023-03-13T01:50:06.147Z,7.09
2023-03-13T01:50:16.221Z,7.11
2023-03-13T01:50:26.342Z,7.11
2023-03-13T01:50:36.438Z,7.11
2023-03-13T01:50:46.521Z,7.09
2023-03-13T01:50:56.618Z,7.09
2023-03-13T01:51:06.704Z,7.09
2023-03-13T01:51:16.810Z,7.11
2023-03-13T01:51:26.924Z,7.11
2023-03-13T01:51:37.033Z,7.09
2023-03-13T01:51:47.118Z,7.08
2023-03-13T01:51:57.232Z,7.11
2023-03-13T01:52:07.319Z,7.11
2023-03-13T01:52:17.414Z,7.11
2023-03-13T01:52:27.495Z,7.12
2023-03-13T01:52:37.747Z,7.11
2023-03-13T01:52:47.638Z,7.11
2023-03-13T01:52:57.738Z,7.11
2023-03-13T01:53:07.845Z,7.11
2023-03-13T01:53:17.909Z,7.12
2023-03-13T01:53:28.010Z,7.11
2023-03-13T01:53:38.089Z,7.11
2023-03-13T01:53:48.219Z,7.09
2023-03-13T01:53:58.300Z,7.11
2023-03-13T01:54:08.427Z,7.09
2023-03-13T01:54:18.488Z,7.11
2023-03-13T01:54:28.630Z,7.09
2023-03-13T01:54:38.718Z,7.09
2023-03-13T01:54:48.858Z,7.11
2023-03-13T01:54:58.968Z,7.11
2023-03-13T01:55:09.049Z,7.12
2023-03-13T01:55:19.157Z,7.12
2023-03-13T01:55:29.227Z,7.11
2023-03-13T01:55:39.313Z,7.12
2023-03-13T01:55:49.398Z,7.11
2023-03-13T01:55:59.499Z,7.11
2023-03-13T01:56:09.586Z,7.11
2023-03-13T01:56:19.689Z,7.11
2023-03-13T01:56:29.779Z,7.12
2023-03-13T01:56:39.862Z,7.11
2023-03-13T01:56:49.940Z,7.09
2023-03-13T01:57:00.038Z,7.11
2023-03-13T01:57:10.050Z,7.11
2023-03-13T01:57:20.141Z,7.11
2023-03-13T01:57:30.321Z,7.11
2023-03-13T01:57:40.424Z,7.11
2023-03-13T01:57:50.514Z,7.11
2023-03-13T01:58:00.610Z,7.11
2023-03-13T01:58:10.729Z,7.12
2023-03-13T01:58:20.759Z,7.11
2023-03-13T01:58:30.848Z,7.11
2023-03-13T01:58:40.919Z,7.11
2023-03-13T01:58:51.022Z,7.11
2023-03-13T01:59:01.089Z,7.12
2023-03-13T01:59:11.189Z,7.11
2023-03-13T01:59:21.278Z,7.12
2023-03-13T01:59:31.256Z,7.11
2023-03-13T01:59:41.354Z,7.11
2023-03-13T01:59:51.428Z,7.11
2023-03-13T02:00:01.520Z,7.11
2023-03-13T02:00:11.619Z,7.11
2023-03-13T02:00:21.732Z,7.12
2023-03-13T02:00:31.818Z,7.11
2023-03-13T02:00:41.960Z,7.12
2023-03-13T02:00:52.039Z,7.12
2023-03-13T02:01:02.119Z,7.12
2023-03-13T02:01:12.245Z,7.12
2023-03-13T02:01:22.342Z,7.12
2023-03-13T02:01:32.494Z,7.12
2023-03-13T02:01:42.536Z,7.12
2023-03-13T02:01:52.529Z,7.12
2023-03-13T02:02:02.762Z,7.14
2023-03-13T02:02:12.743Z,7.12
2023-03-13T02:02:22.924Z,7.12
2023-03-13T02:02:32.868Z,7.12
2023-03-13T02:02:43.003Z,7.12
2023-03-13T02:02:53.149Z,7.12
2023-03-13T02:03:03.420Z,7.12
2023-03-13T02:03:13.426Z,7.12
2023-03-13T02:03:23.492Z,7.12
2023-03-13T02:03:33.579Z,7.12
2023-03-13T02:03:43.667Z,7.12
2023-03-13T02:03:53.750Z,7.14
2023-03-13T02:04:03.838Z,7.14
2023-03-13T02:04:13.945Z,7.15
2023-03-13T02:04:24.042Z,7.14
2023-03-13T02:04:34.157Z,7.14
2023-03-13T02:04:44.138Z,7.14
2023-03-13T02:04:54.247Z,7.12
2023-03-13T02:05:04.329Z,7.14
2023-03-13T02:05:14.410Z,7.14
2023-03-13T02:05:24.509Z,7.15
2023-03-13T02:05:34.593Z,7.15
2023-03-13T02:05:44.665Z,7.14
2023-03-13T02:05:54.782Z,7.14
2023-03-13T02:06:04.867Z,7.14
2023-03-13T02:06:14.945Z,7.15
2023-03-13T02:06:25.037Z,7.15
2023-03-13T02:06:35.160Z,7.15
2023-03-13T02:06:45.275Z,7.15
2023-03-13T02:06:55.351Z,7.16
2023-03-13T02:07:05.459Z,7.15
2023-03-13T02:07:15.556Z,7.15
2023-03-13T02:07:25.668Z,7.16
2023-03-13T02:07:35.903Z,7.16
2023-03-13T02:07:45.831Z,7.16
2023-03-13T02:07:55.905Z,7.16
2023-03-13T02:08:06.013Z,7.16
2023-03-13T02:08:16.087Z,7.16
2023-03-13T02:08:26.187Z,7.18
2023-03-13T02:08:36.260Z,7.16
2023-03-13T02:08:46.392Z,7.16
2023-03-13T02:08:56.479Z,7.16
2023-03-13T02:09:06.609Z,7.16
2023-03-13T02:09:16.578Z,7.16
2023-03-13T02:09:26.681Z,7.18
2023-03-13T02:09:36.748Z,7.16
2023-03-13T02:09:46.829Z,7.16
2023-03-13T02:09:56.906Z,7.18
2023-03-13T02:10:07.029Z,7.18
2023-03-13T02:10:17.104Z,7.18
2023-03-13T02:10:27.218Z,7.16
2023-03-13T02:10:37.251Z,7.16
2023-03-13T02:10:47.354Z,7.18
2023-03-13T02:10:57.424Z,7.16
2023-03-13T02:11:07.507Z,7.18
2023-03-13T02:11:17.603Z,7.16
2023-03-13T02:11:27.721Z,7.18
2023-03-13T02:11:37.798Z,7.18
2023-03-13T02:11:47.890Z,7.19
2023-03-13T02:11:57.956Z,7.18
2023-03-13T02:12:08.111Z,7.18
2023-03-13T02:12:18.194Z,7.18
2023-03-13T02:12:28.267Z,7.18
2023-03-13T02:12:38.382Z,7.18
2023-03-13T02:12:48.463Z,7.19
2023-03-13T02:12:58.553Z,7.18
2023-03-13T02:13:08.637Z,7.18
2023-03-13T02:13:18.733Z,7.18
2023-03-13T02:13:28.827Z,7.19
2023-03-13T02:13:38.933Z,7.16
2023-03-13T02:13:48.996Z,7.19
2023-03-13T02:13:59.083Z,7.18
2023-03-13T02:14:09.177Z,7.16
2023-03-13T02:14:21.973Z,7.18